Grand Rapids, MN

7:27 PM CDT on July 06, 2015 (GMT -0500)
Southwest | | Change Station
CLOSE
Current Station
Personal Weather Station
Location: Grand Rapids, MN
Elevation: 1322 ft
Nearby Weather Stations

Elev 1322 ft 47.23 °N, 93.54 °W | Updated 2 minutes ago

Overcast
Overcast
60.8 °F
Feels Like 60.8 °F
N
3.1
Wind Variable Wind from West
Gusts 6.9 mph

Today
High -- | Low -- °F
--% Chance of Precip.
Yesterday
High -- | Low -- °F
Precip. -- in
5:25 AM 9:12 PM
Waning Gibbous, 71% visible
Pressure 30.03 in
Visibility 10.0 miles
Clouds Overcast 4900 ft
Dew Point 45 °F
Humidity 56%
Rainfall 0.00 in
Snow Depth Not available.
UV 0 out of 12
Pollen .60 out of 12
Air Quality Not available.
Flu Activity Not available.
METAR KGPZ 070015Z AUTO 33009KT 10SM OVC049 16/06 A3003 RMK AO1

More Conditions Fewer Conditions

Pressure 30.03 in
Visibility 10.0 miles
Clouds Overcast 4900 ft
Dew Point 45 °F
Humidity 56%
Rainfall 0.00 in
Snow Depth Not available.
UV 0 out of 12
Pollen .60 out of 12
Air Quality Not available.
Flu Activity Not available.
METAR KGPZ 070015Z AUTO 33009KT 10SM OVC049 16/06 A3003 RMK AO1

More Conditions Fewer Conditions

10-Day Weather Forecast

×

Almanac

Astronomy

Jul. 06, 2015 Rise Set
Actual Time
Civil Twilight
Nautical Twilight
Astronomical Twilight
Moon
Length of Visible Light
Length of Day
Tomorrow will be .
, % of the Moon is Illuminated

Today's Extremes

State Highs State Lows

Community

WunderPhotos

Upload Photos

1,835,695 photos uploaded!

WunderBlogs® & News

Nearby

Air Quality

  Air Quality AQ Index Pollutant
Not available.

Snow Depth

Station Depth Elevation

Earthquake Activity

City Distance Mag. Time & Date
Minimum magnitude displayed is 2.5.

Coastal Water Temperatures

Place Temperature

Stations

Nearby Weather Stations

Station Location Temp. Windchill Dew Point Humidity Wind Precip. Elev Updated Type